Terminal Aerodrome Forecast
Issued by NWS

Home | Current Version | Previous Version | Text Only | Print | Product List | Glossary On
Versions: 1 2 3 4 5 6 7 8 9 10 11 12 13 14 15 16 17 18 19 20 21 22 23 24
000
FTUS45 KBOI 251740
TAFBKE
TAF
KBKE 251740Z 2518/2618 31011KT P6SM VCSH SCT030 BKN050
      TEMPO 2518/2522 32015G25KT P6SM -SHRA BKN040
     FM252200 31011KT P6SM VCSH BKN050
      TEMPO 2522/2602 32010G20KT -SHRA
     FM260200 31009KT P6SM SCT050
     FM261600 31012G18KT P6SM SKC=

USA.gov is the U.S. government's official web portal to all federal, state and local government web resources and services.